Jabalpur, Jabalpur Airport (VAJB)

NameJabalpur Airport
CityJabalpur
CountryIndia
ICAOVAJB
IATAJLR
Altitude495 m
CoordinatesGoogle Map
Live Air TrafficLiveATC.net
METARVAJB 201200Z 03006KT 2500 -RA SCT015 SCT030 OVC080 24/22 Q1015
2019-10-20 12:00:00 Wind: North-Northeast (30°) 3.09 m/s - Visibility: 2500 m - Weather: Light Rain - Temperature: 24 °C - Dew point: 22 °C - Humidity: 88.6% - Pressure: 1015 hPa
Statistics

The table below shows the detailed information of all flights to/from Jabalpur, Jabalpur Airport (VAJB).

Ident Aircraft Coming fromFrom Going toTo Owner nameOwnerSpotted durationDurationDate
NA - NA - SpiceJet SEJ2871 Not Available Not Available NA Delhi, India (VIDP) VIDP
6 km
Jabalpur, India (VAJB) VAJB
631 km
- - - - Sun, 06 Oct 2019 04:34:28 +0000 6/10/2019 4:34 am
NA - NA - SpiceJet SEJ2872 Not Available Not Available NA Jabalpur, India (VAJB) VAJB
938 km
Bombay, India (VABB) VABB
45 km
- - - - Mon, 30 Sep 2019 10:32:49 +0000 30/9/2019 10:32 am
NA - NA - SpiceJet SEJ2871 Not Available Not Available NA Delhi, India (VIDP) VIDP
203 km
Jabalpur, India (VAJB) VAJB
424 km
- - 00:22:33 00:22:33 Sun, 08 Sep 2019 04:41:39 +0000 8/9/2019 4:41 am
Sun, 08 Sep 2019 05:04:12 +0000 8/9/2019 5:04 am
NA - NA - SpiceJet SEJ2872 Not Available Not Available NA Jabalpur, India (VAJB) VAJB
946 km
Bombay, India (VABB) VABB
51 km
- - - - Wed, 04 Sep 2019 11:02:29 +0000 4/9/2019 11:02 am